Time;durP1;ratioP1;P1;durP2;ratioP2;P2;SDS_P1;SDS_P2;PMS_P1;PMS_P2;Temp;Humidity;BMP_temperature;BMP_pressure;BME280_temperature;BME280_humidity;BME280_pressure;Samples;Min_cycle;Max_cycle;Signal;HPM_P1;HPM_P2
2021/01/12 00:01:40;;;;;;;19.90;14.20;;;0.00;99.90;;;;;;5049152;28;20579;-68
2021/01/12 00:04:06;;;;;;;21.43;13.83;;;0.00;99.90;;;;;;5047321;28;20447;-69
2021/01/12 00:06:33;;;;;;;19.77;14.70;;;0.10;99.90;;;;;;5049642;28;20454;-68
2021/01/12 00:08:59;;;;;;;20.50;13.60;;;0.10;99.90;;;;;;5050342;28;20538;-69
2021/01/12 00:11:25;;;;;;;21.10;14.37;;;0.00;99.90;;;;;;5049374;28;20468;-68
2021/01/12 00:13:53;;;;;;;15.00;12.03;;;-0.10;99.90;;;;;;5050126;28;20452;-68
2021/01/12 00:16:20;;;;;;;17.87;12.57;;;0.00;99.90;;;;;;5049629;28;20527;-68
2021/01/12 00:18:46;;;;;;;19.70;14.30;;;0.00;99.90;;;;;;5051051;28;20454;-69
2021/01/12 00:21:13;;;;;;;16.73;12.10;;;0.00;99.90;;;;;;5049771;28;20983;-69
2021/01/12 00:23:39;;;;;;;20.80;14.07;;;0.10;99.90;;;;;;5046036;28;20579;-68
2021/01/12 00:26:07;;;;;;;19.20;13.03;;;0.10;99.90;;;;;;5047730;28;20452;-70
2021/01/12 00:28:34;;;;;;;19.80;13.90;;;0.10;99.90;;;;;;5049892;28;20529;-68
2021/01/12 00:31:04;;;;;;;18.33;13.40;;;0.10;99.90;;;;;;5048752;28;20556;-68
2021/01/12 00:33:31;;;;;;;19.63;13.67;;;0.10;99.90;;;;;;5049578;28;20448;-68
2021/01/12 00:36:02;;;;;;;20.77;14.50;;;0.10;99.90;;;;;;5049542;28;20450;-68
2021/01/12 00:38:29;;;;;;;19.70;14.23;;;0.20;99.90;;;;;;5049897;28;20569;-68
2021/01/12 00:40:55;;;;;;;15.23;11.20;;;0.20;99.90;;;;;;5050368;28;20896;-68
2021/01/12 00:43:24;;;;;;;20.30;13.87;;;0.20;99.90;;;;;;5051136;28;20476;-68
2021/01/12 00:45:50;;;;;;;20.23;12.53;;;0.20;99.90;;;;;;5050876;28;20440;-68
2021/01/12 00:48:18;;;;;;;16.50;12.93;;;0.30;99.90;;;;;;5050951;28;20551;-68
2021/01/12 00:50:44;;;;;;;19.80;12.33;;;0.30;99.90;;;;;;5050087;28;20566;-68
2021/01/12 00:53:10;;;;;;;19.20;13.10;;;0.30;99.90;;;;;;5050838;28;20533;-68
2021/01/12 00:55:37;;;;;;;19.27;13.47;;;0.30;99.90;;;;;;5050644;28;20483;-68
2021/01/12 00:58:05;;;;;;;18.70;13.37;;;0.30;99.90;;;;;;5050753;28;20854;-68
2021/01/12 01:00:31;;;;;;;17.77;12.73;;;0.30;99.90;;;;;;5049875;28;21176;-68
2021/01/12 01:02:57;;;;;;;16.93;12.40;;;0.40;99.90;;;;;;5050615;28;20454;-68
2021/01/12 01:05:25;;;;;;;17.40;12.37;;;0.40;99.90;;;;;;5050440;28;20455;-68
2021/01/12 01:07:51;;;;;;;18.77;12.60;;;0.40;99.90;;;;;;5050584;28;20444;-68
2021/01/12 01:10:18;;;;;;;18.97;12.70;;;0.60;99.90;;;;;;5049796;28;20459;-68
2021/01/12 01:12:44;;;;;;;17.80;13.07;;;0.60;99.90;;;;;;5050554;28;20432;-68
2021/01/12 01:15:11;;;;;;;17.97;13.10;;;0.60;99.90;;;;;;5050294;28;20530;-68
2021/01/12 01:17:37;;;;;;;18.77;12.23;;;0.60;99.90;;;;;;5050277;28;20951;-68
2021/01/12 01:20:05;;;;;;;17.37;12.57;;;0.60;99.90;;;;;;5049305;28;20552;-68
2021/01/12 01:22:32;;;;;;;20.50;13.83;;;0.60;99.90;;;;;;5050155;28;20537;-67
2021/01/12 01:24:58;;;;;;;17.57;13.40;;;0.60;99.90;;;;;;5050165;28;20481;-67
2021/01/12 01:27:25;;;;;;;15.30;12.17;;;0.70;99.90;;;;;;5050229;28;20454;-67
2021/01/12 01:29:51;;;;;;;18.60;12.60;;;0.70;99.90;;;;;;5049240;28;20450;-67
2021/01/12 01:32:18;;;;;;;17.97;12.63;;;0.70;99.90;;;;;;5050034;28;20539;-67
2021/01/12 01:34:44;;;;;;;18.10;11.73;;;0.70;99.90;;;;;;5050250;28;20491;-68
2021/01/12 01:37:10;;;;;;;18.10;12.47;;;0.60;99.90;;;;;;5049484;28;20466;-67
2021/01/12 01:39:38;;;;;;;16.80;11.83;;;0.80;99.90;;;;;;5049159;28;20530;-67
2021/01/12 01:42:04;;;;;;;20.23;12.97;;;0.70;99.90;;;;;;5049756;28;20512;-67
2021/01/12 01:44:30;;;;;;;19.13;13.10;;;0.80;99.90;;;;;;5049731;28;20517;-67
2021/01/12 01:46:57;;;;;;;18.10;12.70;;;0.80;99.90;;;;;;5049782;28;20487;-67
2021/01/12 01:49:23;;;;;;;16.63;12.27;;;0.80;99.90;;;;;;5049270;28;20532;-67
2021/01/12 01:51:51;;;;;;;16.77;11.87;;;0.80;99.90;;;;;;5049566;28;20538;-68
2021/01/12 01:54:19;;;;;;;16.70;11.20;;;0.80;99.90;;;;;;5049647;28;20451;-68
2021/01/12 01:56:46;;;;;;;14.10;10.40;;;0.90;99.90;;;;;;5049542;28;20945;-67
2021/01/12 01:59:12;;;;;;;18.40;11.87;;;0.90;99.90;;;;;;5048958;28;20593;-67
2021/01/12 02:01:38;;;;;;;16.73;10.23;;;0.90;99.90;;;;;;5049388;28;20492;-67
2021/01/12 02:04:11;;;;;;;14.30;10.40;;;0.90;99.90;;;;;;5049738;28;20457;-67
2021/01/12 02:06:38;;;;;;;15.87;10.97;;;0.90;99.90;;;;;;5049865;28;20539;-68
2021/01/12 02:09:10;;;;;;;17.77;12.23;;;0.90;99.90;;;;;;5049213;28;20539;-67
2021/01/12 02:11:42;;;;;;;15.27;11.07;;;1.00;99.90;;;;;;5049653;28;20498;-67
2021/01/12 02:14:16;;;;;;;16.20;10.83;;;1.10;99.90;;;;;;5049362;28;20505;-67
2021/01/12 02:16:43;;;;;;;15.73;10.47;;;1.00;99.90;;;;;;5049625;28;20527;-67
2021/01/12 02:19:13;;;;;;;14.53;9.90;;;1.00;99.90;;;;;;5048819;28;20993;-68
2021/01/12 02:21:44;;;;;;;15.80;9.90;;;1.10;99.90;;;;;;5049016;28;20502;-67
2021/01/12 02:24:13;;;;;;;15.85;11.65;;;1.10;99.90;;;;;;5048659;28;20486;-67
2021/01/12 02:26:39;;;;;;;12.27;9.03;;;1.10;99.90;;;;;;5049430;28;20302;-67
2021/01/12 02:29:06;;;;;;;14.67;10.30;;;1.20;99.90;;;;;;5048975;28;20880;-67
2021/01/12 02:31:32;;;;;;;14.37;9.60;;;1.20;99.90;;;;;;5049378;28;20468;-68
2021/01/12 02:34:02;;;;;;;12.33;9.53;;;1.30;99.90;;;;;;5049925;28;20466;-67
2021/01/12 02:36:30;;;;;;;12.97;9.23;;;1.30;99.90;;;;;;5049353;28;20535;-67
2021/01/12 02:38:57;;;;;;;13.67;9.30;;;1.30;99.90;;;;;;5049190;28;20447;-68
2021/01/12 02:41:29;;;;;;;13.60;9.87;;;1.20;99.90;;;;;;5049134;28;20488;-67
2021/01/12 02:43:55;;;;;;;13.87;9.40;;;1.30;99.90;;;;;;5049452;28;20506;-68
2021/01/12 02:46:21;;;;;;;11.70;8.60;;;1.30;99.90;;;;;;5049034;28;20440;-68
2021/01/12 02:48:48;;;;;;;12.00;7.90;;;1.40;99.90;;;;;;5051655;28;20447;-68
2021/01/12 02:51:16;;;;;;;14.20;9.33;;;1.40;99.90;;;;;;5052610;28;20464;-67
2021/01/12 02:53:42;;;;;;;12.17;8.83;;;1.40;99.90;;;;;;5052923;28;20450;-67
2021/01/12 02:56:09;;;;;;;10.00;8.30;;;1.40;99.90;;;;;;5053150;28;20805;-67
2021/01/12 02:58:36;;;;;;;10.90;7.70;;;1.40;99.90;;;;;;5053168;28;20808;-68
2021/01/12 03:01:04;;;;;;;12.17;8.30;;;1.50;99.90;;;;;;5052333;28;20499;-67
2021/01/12 03:03:30;;;;;;;11.03;7.60;;;1.50;99.90;;;;;;5052827;28;20523;-67
2021/01/12 03:05:57;;;;;;;12.27;7.67;;;1.60;99.90;;;;;;5052928;28;20516;-67
2021/01/12 03:08:23;;;;;;;11.13;7.77;;;1.60;99.90;;;;;;5052906;28;20450;-67
2021/01/12 03:10:49;;;;;;;12.30;8.10;;;1.60;99.90;;;;;;5051892;28;20551;-67
2021/01/12 03:13:16;;;;;;;12.63;8.03;;;1.50;99.90;;;;;;5052781;28;21027;-68
2021/01/12 03:15:43;;;;;;;13.03;8.27;;;1.50;99.90;;;;;;5052889;28;20534;-67
2021/01/12 03:18:10;;;;;;;10.97;7.57;;;1.50;99.90;;;;;;5052601;28;20538;-66
2021/01/12 03:20:36;;;;;;;13.17;8.60;;;1.50;99.90;;;;;;5051726;28;20470;-67
2021/01/12 03:23:03;;;;;;;11.63;7.90;;;1.50;99.90;;;;;;5052434;28;20575;-68
2021/01/12 03:25:30;;;;;;;12.70;7.70;;;1.50;99.90;;;;;;5052788;28;20531;-67
2021/01/12 03:27:56;;;;;;;10.60;7.53;;;1.50;99.90;;;;;;5052536;28;20447;-67
2021/01/12 03:30:23;;;;;;;9.70;7.27;;;1.50;99.90;;;;;;5051892;28;20547;-67
2021/01/12 03:32:52;;;;;;;11.40;7.17;;;1.50;99.90;;;;;;5052385;28;20523;-67
2021/01/12 03:35:19;;;;;;;11.40;7.20;;;1.60;99.90;;;;;;5052415;28;20443;-67
2021/01/12 03:37:45;;;;;;;10.03;7.07;;;1.60;99.90;;;;;;5052773;28;20539;-68
2021/01/12 03:40:12;;;;;;;10.20;7.63;;;1.60;99.90;;;;;;5051737;28;20463;-67
2021/01/12 03:42:39;;;;;;;12.07;8.03;;;1.60;99.90;;;;;;5052396;28;20545;-67
2021/01/12 03:45:07;;;;;;;9.93;7.20;;;1.60;99.90;;;;;;5052174;28;20959;-67
2021/01/12 03:47:33;;;;;;;12.43;7.27;;;1.60;99.90;;;;;;5052091;28;20527;-67
2021/01/12 03:50:01;;;;;;;9.73;7.10;;;1.60;99.90;;;;;;5051204;28;20499;-67
2021/01/12 03:52:27;;;;;;;12.93;6.97;;;1.60;99.90;;;;;;5051983;28;20450;-67
2021/01/12 03:54:53;;;;;;;10.07;6.20;;;1.70;99.90;;;;;;5052034;28;20444;-68
2021/01/12 03:57:20;;;;;;;8.73;7.00;;;1.70;99.90;;;;;;5051642;28;20510;-68
2021/01/12 03:59:46;;;;;;;8.50;6.47;;;1.70;99.90;;;;;;5049517;28;20523;-67
2021/01/12 04:02:13;;;;;;;9.03;6.23;;;1.70;99.90;;;;;;5051483;28;20571;-67
2021/01/12 04:04:39;;;;;;;7.90;5.80;;;1.70;99.90;;;;;;5051652;28;20448;-67
2021/01/12 04:07:07;;;;;;;8.50;6.40;;;1.70;99.90;;;;;;5051770;28;20444;-68
2021/01/12 04:09:33;;;;;;;12.23;6.70;;;1.80;99.90;;;;;;5051129;28;20494;-68
2021/01/12 04:11:59;;;;;;;9.10;6.27;;;1.80;99.90;;;;;;5051481;28;20439;-68
2021/01/12 04:14:26;;;;;;;9.77;6.50;;;1.80;99.90;;;;;;5051590;28;20501;-68
2021/01/12 04:16:52;;;;;;;9.07;5.87;;;1.80;99.90;;;;;;5051592;28;20451;-68
2021/01/12 04:19:18;;;;;;;9.97;6.73;;;1.90;99.90;;;;;;5050591;28;20944;-67
2021/01/12 04:21:45;;;;;;;12.30;6.70;;;1.90;99.90;;;;;;5051406;28;20528;-67
2021/01/12 04:24:12;;;;;;;7.90;6.13;;;1.90;99.90;;;;;;5051237;28;20494;-67
2021/01/12 04:26:38;;;;;;;8.83;5.83;;;1.90;99.90;;;;;;5051278;28;20534;-67
2021/01/12 04:29:05;;;;;;;9.50;6.30;;;1.90;99.90;;;;;;5050627;28;20446;-68
2021/01/12 04:31:31;;;;;;;8.83;5.90;;;1.90;99.90;;;;;;5050782;28;20901;-67
2021/01/12 04:33:58;;;;;;;9.30;5.73;;;1.90;99.90;;;;;;5051364;28;20475;-68
2021/01/12 04:36:24;;;;;;;9.50;6.17;;;1.90;99.90;;;;;;5051231;28;20475;-68
2021/01/12 04:38:50;;;;;;;10.30;7.22;;;1.90;99.90;;;;;;5050992;28;20967;-68
2021/01/12 04:41:18;;;;;;;10.70;7.70;;;1.80;99.90;;;;;;5051396;28;20712;-68
2021/01/12 04:43:44;;;;;;;14.13;7.23;;;1.90;99.90;;;;;;5051938;28;20448;-68
2021/01/12 04:46:11;;;;;;;10.27;7.53;;;2.00;99.90;;;;;;5050736;28;20531;-67
2021/01/12 04:48:37;;;;;;;7.30;5.80;;;2.00;99.90;;;;;;5050846;28;20456;-67
2021/01/12 04:51:04;;;;;;;8.80;6.63;;;2.00;99.90;;;;;;5050203;28;20833;-67
2021/01/12 04:53:38;;;;;;;9.77;6.27;;;2.00;99.90;;;;;;5050586;28;20971;-67
2021/01/12 04:56:05;;;;;;;8.43;6.33;;;2.00;99.90;;;;;;5050693;28;20535;-67
2021/01/12 04:58:40;;;;;;;10.67;8.07;;;1.90;99.90;;;;;;5050599;28;20462;-68
2021/01/12 05:01:10;;;;;;;10.00;6.80;;;2.00;99.90;;;;;;5050046;28;20613;-68
2021/01/12 05:03:37;;;;;;;9.17;6.73;;;2.00;99.90;;;;;;5050570;28;20538;-68
2021/01/12 05:06:03;;;;;;;9.03;6.40;;;2.00;99.90;;;;;;5050604;28;20559;-67
2021/01/12 05:08:30;;;;;;;9.70;6.63;;;2.00;99.90;;;;;;5050545;28;20930;-68
2021/01/12 05:10:59;;;;;;;12.17;6.23;;;2.10;99.90;;;;;;5049119;28;20471;-68
2021/01/12 05:13:27;;;;;;;7.70;6.37;;;2.10;99.90;;;;;;5050277;28;20440;-68
2021/01/12 05:16:05;;;;;;;8.07;5.70;;;2.10;99.90;;;;;;5050535;28;20496;-67
2021/01/12 05:18:38;;;;;;;7.50;6.10;;;2.10;99.90;;;;;;5050501;28;20454;-68
2021/01/12 05:21:06;;;;;;;8.00;5.27;;;2.10;99.90;;;;;;5049508;28;20971;-68
2021/01/12 05:23:47;;;;;;;9.20;6.43;;;2.10;99.90;;;;;;5050236;28;20556;-68
2021/01/12 05:26:17;;;;;;;7.03;5.80;;;2.10;99.90;;;;;;5050208;28;20448;-68
2021/01/12 05:28:44;;;;;;;10.10;6.73;;;2.10;99.90;;;;;;5050205;28;21000;-68
2021/01/12 05:31:13;;;;;;;10.13;7.07;;;2.10;99.90;;;;;;5049349;28;20464;-68
2021/01/12 05:33:41;;;;;;;7.90;5.90;;;2.10;99.90;;;;;;5050016;28;20607;-68
2021/01/12 05:36:08;;;;;;;9.90;6.30;;;2.10;99.90;;;;;;5049918;28;20458;-67
2021/01/12 05:38:35;;;;;;;9.57;6.40;;;2.20;99.90;;;;;;5049874;28;20810;-68
2021/01/12 05:41:03;;;;;;;8.23;6.47;;;2.20;99.90;;;;;;5049195;28;20528;-68
2021/01/12 05:43:37;;;;;;;11.30;7.13;;;2.20;99.90;;;;;;5049773;28;20444;-68
2021/01/12 05:46:07;;;;;;;10.50;6.93;;;2.10;99.90;;;;;;5049683;28;20535;-68
2021/01/12 05:48:37;;;;;;;10.53;7.13;;;2.10;99.90;;;;;;5049606;28;20877;-67
2021/01/12 05:51:06;;;;;;;9.90;7.13;;;2.10;99.90;;;;;;5049210;28;20463;-68
2021/01/12 05:54:09;;;;;;;10.23;7.10;;;2.10;99.90;;;;;;5049695;28;20451;-68
2021/01/12 05:56:38;;;;;;;9.53;6.47;;;2.10;99.90;;;;;;5049766;28;20445;-68
2021/01/12 05:59:15;;;;;;;8.53;6.63;;;2.10;99.90;;;;;;5049166;28;20542;-68
2021/01/12 06:01:47;;;;;;;10.43;7.13;;;2.10;99.90;;;;;;5049592;28;20514;-68
2021/01/12 06:04:15;;;;;;;10.30;7.00;;;2.10;99.90;;;;;;5049688;28;20448;-68
2021/01/12 06:06:43;;;;;;;9.33;7.57;;;2.10;99.90;;;;;;5049486;28;20531;-68
2021/01/12 06:09:11;;;;;;;9.97;6.17;;;2.20;99.90;;;;;;5048947;28;20444;-68
2021/01/12 06:11:39;;;;;;;8.50;5.47;;;2.20;99.90;;;;;;5049321;28;20579;-67
2021/01/12 06:14:10;;;;;;;9.93;7.07;;;2.20;99.90;;;;;;5049675;28;20857;-67
2021/01/12 06:16:38;;;;;;;9.23;6.07;;;2.20;99.90;;;;;;5049531;28;20445;-67
2021/01/12 06:19:14;;;;;;;9.70;6.33;;;2.30;99.90;;;;;;5044825;28;20987;-67
2021/01/12 06:22:19;;;;;;;8.50;5.90;;;2.30;99.90;;;;;;5048136;28;20499;-66
2021/01/12 06:25:03;;;;;;;9.00;6.70;;;2.40;99.90;;;;;;5048899;28;20979;-67
2021/01/12 06:27:32;;;;;;;8.50;6.00;;;2.40;99.90;;;;;;5051112;28;20451;-69
2021/01/12 06:30:00;;;;;;;10.10;6.13;;;2.40;99.90;;;;;;5047618;28;20472;-69
2021/01/12 06:32:29;;;;;;;9.20;6.47;;;2.40;99.90;;;;;;5051698;28;20503;-75
2021/01/12 06:34:57;;;;;;;7.87;5.50;;;2.50;99.90;;;;;;5051666;28;20440;-67
2021/01/12 06:37:24;;;;;;;7.33;6.30;;;2.50;99.90;;;;;;5052250;28;20638;-71
2021/01/12 06:39:53;;;;;;;9.57;5.57;;;2.50;99.90;;;;;;5051571;28;20436;-70
2021/01/12 06:42:24;;;;;;;8.43;5.70;;;2.50;99.90;;;;;;5052165;28;20488;-69
2021/01/12 06:44:52;;;;;;;7.30;5.30;;;2.40;99.90;;;;;;5048170;28;20891;-67
2021/01/12 06:47:22;;;;;;;12.50;5.70;;;2.40;99.90;;;;;;5048129;28;21003;-68
2021/01/12 06:49:49;;;;;;;7.57;5.23;;;2.40;99.90;;;;;;5050135;28;20868;-70
2021/01/12 06:52:16;;;;;;;10.03;7.37;;;2.40;99.90;;;;;;5051076;28;20655;-70
2021/01/12 06:54:44;;;;;;;9.73;6.17;;;2.40;99.90;;;;;;5051134;28;21020;-69
2021/01/12 06:57:11;;;;;;;9.40;5.63;;;2.40;99.90;;;;;;5051078;28;20501;-70
2021/01/12 06:59:40;;;;;;;9.52;6.43;;;2.30;99.90;;;;;;5049317;28;21029;-69
2021/01/12 07:02:26;;;;;;;9.60;6.40;;;2.40;99.90;;;;;;5051456;28;20459;-70
2021/01/12 07:04:57;;;;;;;8.30;6.63;;;2.40;99.90;;;;;;5051074;28;20535;-70
2021/01/12 07:07:24;;;;;;;8.43;6.10;;;2.40;99.90;;;;;;5051249;28;20444;-70
2021/01/12 07:09:53;;;;;;;7.10;5.37;;;2.40;99.90;;;;;;5049661;28;20440;-69
2021/01/12 07:12:21;;;;;;;8.63;6.30;;;2.40;99.90;;;;;;5050872;28;20940;-70
2021/01/12 07:14:51;;;;;;;8.90;5.87;;;2.50;99.90;;;;;;5050787;28;20444;-70
2021/01/12 07:17:31;;;;;;;7.27;4.97;;;2.40;99.90;;;;;;5050659;28;20531;-72
2021/01/12 07:20:06;;;;;;;7.17;5.73;;;2.50;99.90;;;;;;5049745;28;20495;-73
2021/01/12 07:22:33;;;;;;;8.80;6.53;;;2.50;99.90;;;;;;5049809;28;20479;-71
2021/01/12 07:25:01;;;;;;;8.97;5.60;;;2.50;99.90;;;;;;5051003;28;20482;-69
2021/01/12 07:27:28;;;;;;;8.07;5.23;;;2.60;99.90;;;;;;5048004;28;20448;-71
2021/01/12 07:29:56;;;;;;;7.13;5.13;;;2.50;99.90;;;;;;5045567;28;20447;-71
2021/01/12 07:32:33;;;;;;;8.00;5.63;;;2.60;99.90;;;;;;5046125;28;20539;-70
2021/01/12 07:35:04;;;;;;;9.20;5.97;;;2.60;99.90;;;;;;5046956;28;20566;-72
2021/01/12 07:37:33;;;;;;;7.77;5.60;;;2.60;99.90;;;;;;5048659;28;20452;-69
2021/01/12 07:40:00;;;;;;;10.33;5.57;;;2.60;99.90;;;;;;5048292;28;20479;-70
2021/01/12 07:42:27;;;;;;;7.57;5.80;;;2.60;99.90;;;;;;5048677;28;20515;-70
2021/01/12 07:44:53;;;;;;;8.20;5.83;;;2.60;99.90;;;;;;5049005;28;20482;-68
2021/01/12 07:47:21;;;;;;;8.33;6.07;;;2.60;99.90;;;;;;5048340;28;20444;-71
2021/01/12 07:49:50;;;;;;;9.17;6.07;;;2.70;99.90;;;;;;5047527;28;20456;-69
2021/01/12 07:52:20;;;;;;;7.47;5.10;;;2.70;99.90;;;;;;5048946;28;20531;-71
2021/01/12 07:54:46;;;;;;;7.30;4.87;;;2.70;99.90;;;;;;5048409;28;20542;-73
2021/01/12 07:57:13;;;;;;;7.63;5.57;;;2.70;99.90;;;;;;5048029;28;20444;-75
2021/01/12 07:59:41;;;;;;;8.60;4.93;;;2.70;99.90;;;;;;5044678;28;20455;-73
2021/01/12 08:02:07;;;;;;;5.43;4.23;;;2.80;99.90;;;;;;5045384;28;20570;-73
2021/01/12 08:04:38;;;;;;;10.20;5.50;;;2.80;99.90;;;;;;5048552;28;20549;-73
2021/01/12 08:07:04;;;;;;;6.30;4.40;;;2.80;99.90;;;;;;5048158;28;20619;-73
2021/01/12 08:09:31;;;;;;;8.10;5.60;;;2.80;99.90;;;;;;5046777;28;20489;-73
2021/01/12 08:12:01;;;;;;;10.53;7.10;;;2.80;99.90;;;;;;5047695;28;21051;-73
2021/01/12 08:14:27;;;;;;;10.27;5.80;;;2.90;99.90;;;;;;5047847;28;20483;-73
2021/01/12 08:16:55;;;;;;;7.77;4.67;;;2.90;99.90;;;;;;5047818;28;20817;-75
2021/01/12 08:19:23;;;;;;;7.60;5.30;;;2.90;99.90;;;;;;5046734;28;21003;-74
2021/01/12 08:21:51;;;;;;;6.60;4.47;;;2.90;99.90;;;;;;5047247;28;20575;-72
2021/01/12 08:24:22;;;;;;;8.43;5.30;;;3.00;99.90;;;;;;5047895;28;20460;-74
2021/01/12 08:26:49;;;;;;;6.67;4.60;;;3.00;99.90;;;;;;5047387;28;20539;-72
2021/01/12 08:29:21;;;;;;;7.00;4.80;;;3.00;99.90;;;;;;5046812;28;20533;-73
2021/01/12 08:31:52;;;;;;;7.07;5.03;;;3.10;99.90;;;;;;5048475;28;20894;-75
2021/01/12 08:34:23;;;;;;;6.77;4.60;;;3.10;99.90;;;;;;5048281;28;20523;-74
2021/01/12 08:36:51;;;;;;;11.50;5.13;;;3.10;99.90;;;;;;5046941;28;20454;-74
2021/01/12 08:39:19;;;;;;;9.63;4.70;;;3.10;99.90;;;;;;5046912;28;20490;-74
2021/01/12 08:41:47;;;;;;;6.13;4.23;;;3.20;99.90;;;;;;5047717;28;20495;-73
2021/01/12 08:44:16;;;;;;;4.33;3.83;;;3.20;99.90;;;;;;5047828;28;20558;-74
2021/01/12 08:46:43;;;;;;;4.63;3.30;;;3.30;99.90;;;;;;5046638;28;20448;-74
2021/01/12 08:49:09;;;;;;;4.70;3.17;;;3.30;99.90;;;;;;5046808;28;20463;-74
2021/01/12 08:51:37;;;;;;;5.17;3.97;;;3.40;99.90;;;;;;5047292;28;20550;-74
2021/01/12 08:54:06;;;;;;;5.07;4.50;;;3.40;99.90;;;;;;5047569;28;20870;-74
2021/01/12 08:56:35;;;;;;;4.97;3.33;;;3.40;99.90;;;;;;5046694;28;20470;-73
2021/01/12 08:59:06;;;;;;;4.57;3.10;;;3.50;99.90;;;;;;5046406;28;20455;-73
2021/01/12 09:01:34;;;;;;;4.63;3.00;;;3.50;99.90;;;;;;5047025;28;20654;-75
2021/01/12 09:04:03;;;;;;;4.50;3.03;;;3.60;99.90;;;;;;5046851;28;20452;-75
2021/01/12 09:06:30;;;;;;;3.83;2.73;;;3.60;99.90;;;;;;5046170;28;20535;-74
2021/01/12 09:09:07;;;;;;;4.60;2.67;;;3.60;99.90;;;;;;5046708;28;20470;-75
2021/01/12 09:11:38;;;;;;;3.20;2.47;;;3.70;99.90;;;;;;5047128;28;20496;-75
2021/01/12 09:14:07;;;;;;;3.27;2.30;;;3.70;99.90;;;;;;5047146;28;20448;-75
2021/01/12 09:16:34;;;;;;;4.27;2.70;;;3.60;99.90;;;;;;5043329;28;20555;-76
2021/01/12 09:19:13;;;;;;;2.50;1.90;;;3.60;99.90;;;;;;5046776;28;20968;-74
2021/01/12 09:21:39;;;;;;;2.57;2.00;;;3.60;99.90;;;;;;5046511;28;20460;-75
2021/01/12 09:24:08;;;;;;;3.10;2.10;;;3.50;99.90;;;;;;5047535;28;20463;-75
2021/01/12 09:26:36;;;;;;;3.07;2.30;;;3.50;99.90;;;;;;5047294;28;20549;-74
2021/01/12 09:29:03;;;;;;;4.07;2.70;;;3.50;99.90;;;;;;5047280;28;20455;-75
2021/01/12 09:31:29;;;;;;;2.87;1.40;;;3.40;99.90;;;;;;5045433;28;20569;-73
2021/01/12 09:33:57;;;;;;;3.50;2.07;;;3.40;99.90;;;;;;5047048;28;20454;-73
2021/01/12 09:36:31;;;;;;;2.90;2.00;;;3.40;99.90;;;;;;5046117;28;20464;-76
2021/01/12 09:38:58;;;;;;;2.90;1.70;;;3.40;99.90;;;;;;5044654;28;20540;-74
2021/01/12 09:41:27;;;;;;;3.27;1.67;;;3.40;99.90;;;;;;5045489;28;20550;-74
2021/01/12 09:43:55;;;;;;;2.50;1.50;;;3.30;99.90;;;;;;5048704;28;20531;-74
2021/01/12 09:46:22;;;;;;;3.47;1.90;;;3.30;99.90;;;;;;5051044;28;20517;-73
2021/01/12 09:48:49;;;;;;;3.53;1.80;;;3.30;99.90;;;;;;5050636;28;20472;-74
2021/01/12 09:51:16;;;;;;;4.13;1.80;;;3.20;99.90;;;;;;5046062;28;20468;-74
2021/01/12 09:53:47;;;;;;;2.53;1.67;;;3.20;99.90;;;;;;5051411;28;20505;-75
2021/01/12 09:56:15;;;;;;;2.40;1.47;;;3.10;99.90;;;;;;5054116;28;20436;-76
2021/01/12 09:58:42;;;;;;;2.93;1.87;;;3.00;99.90;;;;;;5054606;28;20535;-74
2021/01/12 10:01:12;;;;;;;3.03;1.50;;;2.90;99.90;;;;;;5055525;28;20502;-74
2021/01/12 10:03:39;;;;;;;2.00;1.37;;;2.90;99.90;;;;;;5048739;28;20563;-74
2021/01/12 10:06:06;;;;;;;2.57;1.57;;;2.90;99.90;;;;;;5047368;28;20523;-75
2021/01/12 10:08:32;;;;;;;2.30;1.53;;;2.80;99.90;;;;;;5047096;28;21114;-76
2021/01/12 10:10:59;;;;;;;2.13;1.23;;;2.80;99.90;;;;;;5045986;28;20914;-74
2021/01/12 10:13:25;;;;;;;2.37;1.47;;;2.80;99.90;;;;;;5046886;28;20448;-74
2021/01/12 10:15:52;;;;;;;2.93;1.50;;;2.80;99.90;;;;;;5045142;28;20539;-74
2021/01/12 10:18:19;;;;;;;2.17;1.40;;;2.80;99.90;;;;;;5045315;28;20523;-75
2021/01/12 10:20:45;;;;;;;2.10;1.07;;;2.80;99.90;;;;;;5045941;28;20517;-75
2021/01/12 10:23:12;;;;;;;2.77;1.43;;;2.80;99.90;;;;;;5046640;28;20488;-74
2021/01/12 10:25:38;;;;;;;2.23;1.40;;;2.80;99.90;;;;;;5046064;28;20452;-73
2021/01/12 10:28:05;;;;;;;2.00;1.20;;;2.80;99.90;;;;;;5046961;28;20482;-74
2021/01/12 10:30:31;;;;;;;2.27;1.27;;;2.80;99.90;;;;;;5046383;28;20500;-74
2021/01/12 10:32:59;;;;;;;2.60;1.43;;;2.80;99.90;;;;;;5046532;28;20929;-74
2021/01/12 10:35:25;;;;;;;1.60;1.07;;;2.90;99.90;;;;;;5046537;28;20509;-73
2021/01/12 10:37:52;;;;;;;3.03;1.50;;;2.90;99.90;;;;;;5045659;28;21342;-74
2021/01/12 10:40:21;;;;;;;2.37;1.20;;;2.90;99.90;;;;;;5045250;28;20813;-72
2021/01/12 10:42:48;;;;;;;2.60;1.30;;;2.90;99.90;;;;;;5045952;28;20491;-73
2021/01/12 10:45:15;;;;;;;5.90;1.40;;;2.90;99.90;;;;;;5045354;28;20491;-73
2021/01/12 10:47:43;;;;;;;2.50;1.30;;;3.00;99.90;;;;;;5044650;28;20476;-72
2021/01/12 10:50:13;;;;;;;1.83;1.03;;;3.00;99.90;;;;;;5044727;28;20871;-72
2021/01/12 10:52:40;;;;;;;5.23;1.77;;;3.00;99.90;;;;;;5045505;28;20463;-71
2021/01/12 10:55:08;;;;;;;1.73;1.10;;;3.00;99.90;;;;;;5045124;28;20490;-75
2021/01/12 10:57:35;;;;;;;3.10;1.20;;;3.00;99.90;;;;;;5044756;28;20472;-74
2021/01/12 11:00:03;;;;;;;2.13;1.00;;;3.10;99.90;;;;;;5044958;28;20467;-72
2021/01/12 11:02:33;;;;;;;1.70;1.10;;;3.10;99.90;;;;;;5044958;28;20571;-72
2021/01/12 11:04:59;;;;;;;2.23;1.00;;;3.10;99.90;;;;;;5046174;28;20509;-74
2021/01/12 11:07:29;;;;;;;2.27;1.00;;;3.20;99.90;;;;;;5044840;28;20447;-75
2021/01/12 11:09:56;;;;;;;1.57;0.83;;;3.10;99.90;;;;;;5047550;28;20559;-75
2021/01/12 11:12:22;;;;;;;1.57;1.00;;;3.20;99.90;;;;;;5050233;28;20482;-76
2021/01/12 11:14:49;;;;;;;1.53;0.83;;;3.10;99.90;;;;;;5050729;28;20447;-73
2021/01/12 11:17:16;;;;;;;1.47;0.90;;;3.10;99.90;;;;;;5048732;28;20550;-74
2021/01/12 11:19:42;;;;;;;4.17;1.30;;;3.10;99.90;;;;;;5048782;28;20551;-69
2021/01/12 11:22:09;;;;;;;2.03;1.20;;;3.10;99.90;;;;;;5049043;28;20482;-68
2021/01/12 11:24:36;;;;;;;2.07;1.00;;;3.20;99.90;;;;;;5049095;28;20539;-68
2021/01/12 11:27:06;;;;;;;1.80;0.90;;;3.20;99.90;;;;;;5048590;28;20837;-69
2021/01/12 11:29:33;;;;;;;1.67;0.87;;;3.20;99.90;;;;;;5047546;28;20479;-68
2021/01/12 11:32:00;;;;;;;1.77;0.80;;;3.20;99.90;;;;;;5050273;28;20534;-69
2021/01/12 11:34:27;;;;;;;2.23;0.97;;;3.20;99.90;;;;;;5050407;28;20954;-68
2021/01/12 11:36:54;;;;;;;4.17;1.10;;;3.20;99.90;;;;;;5049264;28;20502;-69
2021/01/12 11:39:20;;;;;;;1.60;0.73;;;3.30;99.90;;;;;;5049412;28;20444;-69
2021/01/12 11:41:50;;;;;;;1.90;0.87;;;3.30;99.90;;;;;;5050513;28;20476;-69
2021/01/12 11:44:17;;;;;;;1.60;0.60;;;3.30;99.90;;;;;;5050565;28;20449;-69
2021/01/12 11:46:46;;;;;;;3.10;1.07;;;3.30;99.90;;;;;;5050401;28;20476;-69
2021/01/12 11:49:13;;;;;;;2.90;0.87;;;3.30;99.90;;;;;;5049520;28;20542;-69
2021/01/12 11:51:41;;;;;;;3.00;1.37;;;3.40;99.90;;;;;;5049743;28;21002;-68
2021/01/12 11:54:08;;;;;;;1.60;0.90;;;3.40;99.90;;;;;;5050054;28;21083;-70
2021/01/12 11:56:35;;;;;;;1.50;0.80;;;3.40;99.90;;;;;;5049810;28;20931;-68
2021/01/12 11:59:03;;;;;;;1.30;0.70;;;3.40;99.90;;;;;;5049531;28;20460;-68
2021/01/12 12:01:29;;;;;;;1.53;0.70;;;3.40;99.90;;;;;;5049943;28;20506;-69
2021/01/12 12:03:55;;;;;;;5.33;1.40;;;3.40;99.90;;;;;;5050261;28;20566;-70
2021/01/12 12:06:23;;;;;;;1.70;0.90;;;3.40;99.90;;;;;;5050006;28;20829;-69
2021/01/12 12:08:49;;;;;;;1.50;0.90;;;3.50;99.90;;;;;;5049904;28;20452;-72
2021/01/12 12:11:15;;;;;;;1.63;0.90;;;3.40;99.90;;;;;;5049280;28;20616;-71
2021/01/12 12:13:42;;;;;;;1.60;0.80;;;3.40;99.90;;;;;;5050256;28;20877;-69
2021/01/12 12:16:16;;;;;;;1.80;0.80;;;3.50;99.90;;;;;;5051942;28;20459;-69
2021/01/12 12:18:43;;;;;;;2.13;0.90;;;3.40;99.90;;;;;;5049375;28;20444;-69
2021/01/12 12:21:13;;;;;;;1.70;0.80;;;3.40;99.90;;;;;;5048831;28;21023;-69
2021/01/12 12:23:40;;;;;;;1.50;1.00;;;3.50;99.90;;;;;;5050252;28;20476;-70
2021/01/12 12:26:10;;;;;;;1.70;0.90;;;3.50;99.90;;;;;;5050667;28;20471;-69
2021/01/12 12:28:37;;;;;;;2.47;0.87;;;3.50;99.90;;;;;;5050890;28;20459;-69
2021/01/12 12:31:04;;;;;;;2.47;0.90;;;3.50;99.90;;;;;;5051091;28;20565;-69
2021/01/12 12:33:31;;;;;;;1.93;1.07;;;3.50;99.90;;;;;;5049301;28;20543;-70
2021/01/12 12:35:58;;;;;;;2.10;1.10;;;3.50;99.90;;;;;;5050628;28;20531;-69
2021/01/12 12:38:26;;;;;;;1.97;0.90;;;3.40;99.90;;;;;;5051764;28;20444;-69
2021/01/12 12:40:52;;;;;;;1.53;0.90;;;3.50;99.90;;;;;;5051000;28;20470;-69
2021/01/12 12:43:19;;;;;;;1.67;0.90;;;3.50;99.90;;;;;;5047260;28;20839;-72
2021/01/12 12:45:45;;;;;;;1.60;0.90;;;3.50;99.90;;;;;;5042846;28;20447;-72
2021/01/12 12:48:13;;;;;;;1.50;0.93;;;3.50;99.90;;;;;;5047680;28;20212;-70
2021/01/12 12:50:40;;;;;;;1.40;0.70;;;3.40;99.90;;;;;;5045890;28;20530;-69
2021/01/12 12:53:07;;;;;;;1.83;1.03;;;3.40;99.90;;;;;;5049697;28;20525;-71
2021/01/12 12:55:33;;;;;;;1.87;0.73;;;3.40;99.90;;;;;;5046200;28;20501;-70